createdAt,value
2023-10-01T00:02:56.702Z,97951.09
2023-10-01T00:07:52.668Z,97956.25
2023-10-01T00:12:48.935Z,97964.31
2023-10-01T00:17:45.721Z,97966.84
2023-10-01T00:22:40.548Z,97975.09
2023-10-01T00:27:33.916Z,97980.63
2023-10-01T00:32:29.906Z,97970.78
2023-10-01T00:37:23.923Z,97970.53
2023-10-01T00:42:18.650Z,97967.19
2023-10-01T00:47:12.345Z,97970.66
2023-10-01T00:52:11.409Z,97955.66
2023-10-01T00:57:04.994Z,97943.06
2023-10-01T01:01:59.929Z,97949.53
2023-10-01T01:06:53.736Z,97952.38
2023-10-01T01:11:49.300Z,97951.31
2023-10-01T01:16:42.955Z,97952.28
2023-10-01T01:21:43.422Z,97939.56
2023-10-01T01:26:39.168Z,97942.66
2023-10-01T01:31:46.937Z,97932.56
2023-10-01T01:36:41.047Z,97937.16
2023-10-01T01:41:34.322Z,97945.06
2023-10-01T01:46:29.145Z,97940.38
2023-10-01T01:51:22.728Z,97941.44
2023-10-01T01:56:18.152Z,97944.06
2023-10-01T02:01:19.117Z,97940.59
2023-10-01T02:06:15.116Z,97950.06
2023-10-01T02:11:10.361Z,97930.66
2023-10-01T02:16:20.321Z,97929.81
2023-10-01T02:21:18.584Z,97921.50
2023-10-01T02:26:14.251Z,97931.34
2023-10-01T02:31:09.697Z,97933.81
2023-10-01T02:36:03.832Z,97922.41
2023-10-01T02:40:59.750Z,97913.97
2023-10-01T02:45:53.357Z,97926.75
2023-10-01T02:50:53.338Z,97930.97
2023-10-01T02:55:47.729Z,97934.66
2023-10-01T03:00:44.141Z,97932.13
2023-10-01T03:05:37.889Z,97941.13
2023-10-01T03:10:33.344Z,97931.28
2023-10-01T03:15:29.087Z,97932.91
2023-10-01T03:20:38.615Z,97927.28
2023-10-01T03:25:42.203Z,97925.44
2023-10-01T03:30:36.047Z,97916.53
2023-10-01T03:35:31.510Z,97920.22
2023-10-01T03:40:25.047Z,97920.34
2023-10-01T03:45:38.649Z,97919.03
2023-10-01T03:50:33.593Z,97926.72
2023-10-01T03:55:31.588Z,97932.69
2023-10-01T04:00:35.595Z,97927.97
2023-10-01T04:05:35.077Z,97928.22
2023-10-01T04:10:31.938Z,97926.44
2023-10-01T04:15:30.369Z,97922.25
2023-10-01T04:20:23.808Z,97918.78
2023-10-01T04:25:19.833Z,97922.13
2023-10-01T04:30:16.027Z,97929.78
2023-10-01T04:35:21.433Z,97936.41
2023-10-01T04:40:29.648Z,97932.97
2023-10-01T04:45:37.541Z,97937.50
2023-10-01T04:50:31.721Z,97930.88
2023-10-01T04:55:28.240Z,97945.34
2023-10-01T05:00:24.174Z,97937.19
2023-10-01T05:05:27.603Z,97938.16
2023-10-01T05:10:23.930Z,97930.91
2023-10-01T05:15:26.105Z,97931.22
2023-10-01T05:20:21.549Z,97947.31
2023-10-01T05:25:15.132Z,97952.09
2023-10-01T05:30:29.924Z,97954.19
2023-10-01T05:35:24.764Z,97950.50
2023-10-01T05:40:18.873Z,97948.56
2023-10-01T05:45:20.157Z,97953.72
2023-10-01T05:50:15.711Z,97946.38
2023-10-01T05:55:13.796Z,97947.13
2023-10-01T06:00:18.143Z,97947.88
2023-10-01T06:05:26.499Z,97947.44
2023-10-01T06:10:27.835Z,97949.66
2023-10-01T06:15:22.190Z,97943.81
2023-10-01T06:20:25.033Z,97944.09
2023-10-01T06:25:38.814Z,97940.41
2023-10-01T06:30:32.298Z,97937.09
2023-10-01T06:35:27.160Z,97934.47
2023-10-01T06:40:31.960Z,97935.03
2023-10-01T06:45:40.040Z,97923.00
2023-10-01T06:50:34.780Z,97917.56
2023-10-01T06:55:31.996Z,97914.88
2023-10-01T07:00:33.320Z,97923.56
2023-10-01T07:05:26.601Z,97929.22
2023-10-01T07:10:21.783Z,97935.00
2023-10-01T07:15:17.674Z,97945.19
2023-10-01T07:20:21.013Z,97939.41
2023-10-01T07:25:29.768Z,97941.91
2023-10-01T07:30:40.915Z,97948.91
2023-10-01T07:35:41.869Z,97941.78
2023-10-01T07:40:53.894Z,97944.44
2023-10-01T07:45:57.229Z,97945.28
2023-10-01T07:50:52.890Z,97942.78
2023-10-01T07:55:47.911Z,97942.09
2023-10-01T08:00:44.618Z,97951.47
2023-10-01T08:05:40.236Z,97958.91
2023-10-01T08:10:38.638Z,97960.69
2023-10-01T08:15:32.957Z,97967.09
2023-10-01T08:20:33.479Z,97964.91
2023-10-01T08:25:29.168Z,97972.19
2023-10-01T08:30:40.189Z,97963.06
2023-10-01T08:35:35.675Z,97971.94
2023-10-01T08:40:30.924Z,97981.59
2023-10-01T08:45:39.097Z,97980.25
2023-10-01T08:50:37.915Z,97988.72
2023-10-01T08:55:42.426Z,97986.09
2023-10-01T09:00:35.855Z,97991.44
2023-10-01T09:05:29.260Z,97990.03
2023-10-01T09:10:22.939Z,98001.38
2023-10-01T09:15:29.650Z,97998.66
2023-10-01T09:20:40.910Z,98005.97
2023-10-01T09:25:39.791Z,98003.44
2023-10-01T09:30:36.763Z,98002.91
2023-10-01T09:35:51.211Z,98001.25
2023-10-01T09:40:47.331Z,98010.59
2023-10-01T09:45:42.881Z,98011.91
2023-10-01T09:50:41.290Z,98013.84
2023-10-01T09:55:48.668Z,98011.03
2023-10-01T10:00:44.000Z,98013.25
2023-10-01T10:05:40.742Z,98014.34
2023-10-01T10:10:35.385Z,98008.19
2023-10-01T10:15:59.092Z,98004.81
2023-10-01T10:21:05.629Z,97996.13
2023-10-01T10:26:17.429Z,98001.97
2023-10-01T10:31:35.429Z,97993.69
2023-10-01T10:36:51.826Z,97990.47
2023-10-01T10:42:29.413Z,97985.09
2023-10-01T10:47:24.905Z,97977.28
2023-10-01T10:52:33.026Z,97980.34
2023-10-01T10:57:27.789Z,97969.13
2023-10-01T11:02:21.185Z,97957.81
2023-10-01T11:07:20.503Z,97957.47
2023-10-01T11:12:23.043Z,97953.59
2023-10-01T11:17:23.389Z,97950.38
2023-10-01T11:22:24.145Z,97941.88
2023-10-01T11:27:24.226Z,97935.56
2023-10-01T11:32:18.710Z,97932.88
2023-10-01T11:37:19.530Z,97937.84
2023-10-01T11:42:21.654Z,97930.41
2023-10-01T11:47:32.662Z,97926.03
2023-10-01T11:52:27.765Z,97924.88
2023-10-01T11:57:24.541Z,97922.28
2023-10-01T12:02:21.871Z,97918.34
2023-10-01T12:07:18.379Z,97914.88
2023-10-01T12:12:14.540Z,97901.94
2023-10-01T12:17:07.998Z,97898.84
2023-10-01T12:22:10.735Z,97886.94
2023-10-01T12:27:08.656Z,97881.94
2023-10-01T12:32:08.329Z,97881.34
2023-10-01T12:37:09.050Z,97883.53
2023-10-01T12:42:06.086Z,97878.44
2023-10-01T12:47:03.711Z,97877.91
2023-10-01T12:51:57.259Z,97874.38
2023-10-01T12:57:04.104Z,97859.84
2023-10-01T13:01:57.911Z,97852.09
2023-10-01T13:06:54.851Z,97850.75
2023-10-01T13:11:52.155Z,97848.44
2023-10-01T13:16:51.873Z,97846.63
2023-10-01T13:21:45.213Z,97844.63
2023-10-01T13:26:42.346Z,97837.09
2023-10-01T13:31:41.813Z,97829.63
2023-10-01T13:36:48.566Z,97831.19
2023-10-01T13:42:00.473Z,97832.03
2023-10-01T13:47:13.303Z,97824.03
2023-10-01T13:52:24.285Z,97814.34
2023-10-01T13:57:36.577Z,97801.25
2023-10-01T14:02:47.289Z,97800.94
2023-10-01T14:07:57.995Z,97804.28
2023-10-01T14:13:01.374Z,97797.13
2023-10-01T14:17:57.476Z,97793.41
2023-10-01T14:22:51.360Z,97788.63
2023-10-01T14:27:44.853Z,97784.97
2023-10-01T14:32:39.622Z,97786.97
2023-10-01T14:37:33.992Z,97778.69
2023-10-01T14:42:27.836Z,97786.34
2023-10-01T14:47:21.148Z,97781.06
2023-10-01T14:52:24.296Z,97784.56
2023-10-01T14:57:18.502Z,97783.44
2023-10-01T15:02:16.685Z,97782.25
2023-10-01T15:07:10.326Z,97773.66
2023-10-01T15:12:11.913Z,97774.59
2023-10-01T15:17:18.867Z,97773.13
2023-10-01T15:22:14.381Z,97773.34
2023-10-01T15:27:09.269Z,97766.81
2023-10-01T15:32:16.259Z,97763.94
2023-10-01T15:37:13.294Z,97764.38
2023-10-01T15:42:16.564Z,97763.72
2023-10-01T15:47:10.240Z,97758.22
2023-10-01T15:52:11.591Z,97762.19
2023-10-01T15:57:05.754Z,97754.47
2023-10-01T16:02:07.845Z,97759.97
2023-10-01T16:07:04.881Z,97751.88
2023-10-01T16:11:58.220Z,97757.63
2023-10-01T16:16:51.863Z,97748.56
2023-10-01T16:21:46.621Z,97756.81
2023-10-01T16:26:45.690Z,97748.56
2023-10-01T16:31:39.110Z,97748.41
2023-10-01T16:36:39.000Z,97754.09
2023-10-01T16:41:34.150Z,97757.63
2023-10-01T16:46:33.092Z,97748.59
2023-10-01T16:51:30.092Z,97746.16
2023-10-01T16:56:26.541Z,97749.03
2023-10-01T17:01:27.760Z,97741.94
2023-10-01T17:06:24.974Z,97746.59
2023-10-01T17:11:19.924Z,97742.84
2023-10-01T17:16:26.212Z,97745.09
2023-10-01T17:21:30.110Z,97739.94
2023-10-01T17:26:30.284Z,97747.09
2023-10-01T17:31:28.761Z,97744.63
2023-10-01T17:36:26.945Z,97750.16
2023-10-01T17:41:21.116Z,97749.63
2023-10-01T17:46:14.881Z,97752.56
2023-10-01T17:51:12.294Z,97758.31
2023-10-01T17:56:21.426Z,97752.59
2023-10-01T18:01:16.424Z,97746.09
2023-10-01T18:06:22.148Z,97743.03
2023-10-01T18:11:19.353Z,97751.41
2023-10-01T18:16:26.919Z,97743.59
2023-10-01T18:21:24.073Z,97754.06
2023-10-01T18:26:21.436Z,97747.22
2023-10-01T18:31:18.897Z,97758.81
2023-10-01T18:36:22.183Z,97759.63
2023-10-01T18:41:21.699Z,97754.22
2023-10-01T18:46:20.039Z,97755.72
2023-10-01T18:51:15.460Z,97763.22
2023-10-01T18:56:10.331Z,97766.56
2023-10-01T19:01:05.997Z,97774.50
2023-10-01T19:06:02.202Z,97777.28
2023-10-01T19:11:01.149Z,97786.72
2023-10-01T19:15:59.540Z,97794.28
2023-10-01T19:20:56.811Z,97797.66
2023-10-01T19:25:50.289Z,97794.00
2023-10-01T19:30:51.491Z,97804.38
2023-10-01T19:35:52.940Z,97804.38
2023-10-01T19:40:50.661Z,97800.75
2023-10-01T19:45:44.167Z,97800.75
2023-10-01T19:50:44.521Z,97806.75
2023-10-01T19:55:39.706Z,97805.88
2023-10-01T20:00:35.798Z,97805.31
2023-10-01T20:05:29.088Z,97805.03
2023-10-01T20:10:33.033Z,97805.03
2023-10-01T20:15:29.930Z,97813.03
2023-10-01T20:20:32.590Z,97819.69
2023-10-01T20:25:34.006Z,97812.72
2023-10-01T20:30:32.498Z,97814.53
2023-10-01T20:35:29.387Z,97811.75
2023-10-01T20:40:23.059Z,97813.88
2023-10-01T20:45:24.476Z,97808.72
2023-10-01T20:50:43.339Z,97803.75
2023-10-01T20:55:36.767Z,97806.09
2023-10-01T21:00:39.078Z,97798.00
2023-10-01T21:05:38.074Z,97810.00
2023-10-01T21:10:36.670Z,97809.47
2023-10-01T21:15:29.982Z,97799.63
2023-10-01T21:20:23.825Z,97795.91
2023-10-01T21:25:25.707Z,97807.00
2023-10-01T21:30:19.646Z,97804.28
2023-10-01T21:35:19.042Z,97797.50
2023-10-01T21:40:24.124Z,97797.03
2023-10-01T21:45:41.945Z,97790.75
2023-10-01T21:50:38.671Z,97790.91
2023-10-01T21:55:36.199Z,97796.56
2023-10-01T22:01:02.210Z,97786.84
2023-10-01T22:05:57.182Z,97792.78
2023-10-01T22:10:52.354Z,97793.88
2023-10-01T22:15:45.858Z,97788.69
2023-10-01T22:20:41.538Z,97784.34
2023-10-01T22:25:35.244Z,97779.44
2023-10-01T22:30:31.694Z,97776.22
2023-10-01T22:35:26.497Z,97775.50
2023-10-01T22:40:19.985Z,97781.91
2023-10-01T22:45:27.691Z,97775.81
2023-10-01T22:50:22.959Z,97768.44
2023-10-01T22:55:17.450Z,97781.19
2023-10-01T23:00:13.660Z,97773.41
2023-10-01T23:05:07.868Z,97775.53
2023-10-01T23:10:03.129Z,97773.63
2023-10-01T23:14:59.305Z,97780.09
2023-10-01T23:19:54.540Z,97774.91
2023-10-01T23:24:53.044Z,97775.78
2023-10-01T23:29:48.109Z,97772.19
2023-10-01T23:34:45.205Z,97769.78
2023-10-01T23:39:40.208Z,97770.06
2023-10-01T23:44:53.977Z,97768.34
2023-10-01T23:49:49.515Z,97773.56
2023-10-01T23:54:47.488Z,97775.59
2023-10-01T23:59:49.054Z,97774.16
